Time;durP1;ratioP1;P1;durP2;ratioP2;P2;SDS_P1;SDS_P2;PMS_P1;PMS_P2;Temp;Humidity;BMP_temperature;BMP_pressure;BME280_temperature;BME280_humidity;BME280_pressure;Samples;Min_cycle;Max_cycle;Signal;HPM_P1;HPM_P2
2023/05/17 00:00:16;;;;;;;15.33;5.87;;;;;;;10.31;100.00;101975.44;5025646;28;20222;-76
2023/05/17 00:02:41;;;;;;;18.23;5.17;;;;;;;10.32;100.00;101984.88;5013194;28;20746;-76
2023/05/17 00:05:08;;;;;;;15.57;5.87;;;;;;;10.30;100.00;101991.63;5028974;28;20201;-76
2023/05/17 00:07:33;;;;;;;19.33;6.07;;;;;;;10.29;100.00;101991.56;5034515;28;20202;-76
2023/05/17 00:09:59;;;;;;;18.20;5.20;;;;;;;10.25;100.00;101990.59;5028907;28;20190;-76
2023/05/17 00:12:24;;;;;;;17.37;5.20;;;;;;;10.25;100.00;101990.59;5028152;28;20187;-77
2023/05/17 00:14:49;;;;;;;17.43;5.10;;;;;;;10.22;100.00;101997.25;5028842;28;20289;-76
2023/05/17 00:17:15;;;;;;;18.80;5.00;;;;;;;10.22;100.00;102003.25;5028646;28;20253;-74
2023/05/17 00:19:41;;;;;;;17.00;4.97;;;;;;;10.25;100.00;101997.38;5028860;28;20205;-75
2023/05/17 00:22:06;;;;;;;20.10;4.63;;;;;;;10.22;100.00;101994.69;5010817;28;20218;-77
2023/05/17 00:24:32;;;;;;;17.63;4.63;;;;;;;10.22;100.00;102007.47;5028674;28;20285;-76
2023/05/17 00:26:57;;;;;;;15.87;4.87;;;;;;;10.20;100.00;102009.13;5034198;28;20209;-75
2023/05/17 00:29:22;;;;;;;20.53;5.33;;;;;;;10.12;100.00;102013.94;5019102;28;20200;-76
2023/05/17 00:31:48;;;;;;;15.50;4.77;;;;;;;10.07;100.00;102006.88;5010686;28;20220;-75
2023/05/17 00:34:13;;;;;;;18.73;4.50;;;;;;;10.00;100.00;102005.72;5015571;28;20224;-76
2023/05/17 00:36:39;;;;;;;22.83;5.27;;;;;;;9.95;100.00;102008.94;5028434;28;20212;-76
2023/05/17 00:39:04;;;;;;;17.73;4.30;;;;;;;9.81;100.00;102008.34;5010882;28;20194;-76
2023/05/17 00:41:30;;;;;;;23.23;4.27;;;;;;;9.79;100.00;102015.09;4996450;28;20276;-76
2023/05/17 00:43:55;;;;;;;18.17;4.17;;;;;;;9.76;100.00;102014.97;5015702;28;20193;-75
2023/05/17 00:46:21;;;;;;;16.00;4.57;;;;;;;9.71;100.00;102007.91;5032246;28;20240;-75
2023/05/17 00:48:46;;;;;;;20.57;4.90;;;;;;;9.67;100.00;102019.72;5033429;28;20248;-76
2023/05/17 00:51:15;;;;;;;17.87;4.67;;;;;;;9.61;100.00;102022.00;5036699;28;20190;-76
2023/05/17 00:53:41;;;;;;;18.03;3.90;;;;;;;9.57;100.00;102022.69;5032288;28;20198;-75
2023/05/17 00:56:07;;;;;;;14.37;3.70;;;;;;;9.55;100.00;102029.44;5032957;28;20197;-76
2023/05/17 00:58:34;;;;;;;20.50;4.33;;;;;;;9.54;100.00;102027.66;5022724;28;20214;-76
2023/05/17 01:01:00;;;;;;;19.47;4.43;;;;;;;9.47;100.00;102032.47;5023549;28;20224;-76
2023/05/17 01:03:26;;;;;;;15.13;4.50;;;;;;;9.42;100.00;102026.28;5032499;28;20542;-76
2023/05/17 01:05:52;;;;;;;16.13;4.67;;;;;;;9.40;100.00;102027.91;5027538;28;20198;-76
2023/05/17 01:08:17;;;;;;;20.90;4.50;;;;;;;9.37;100.00;102030.31;5032116;28;20264;-75
2023/05/17 01:10:57;;;;;;;15.43;4.57;;;;;;;9.31;100.00;102022.41;5014507;28;20186;-75
2023/05/17 01:13:53;;;;;;;20.57;4.63;;;;;;;9.30;100.00;102031.75;5010972;28;20201;-75
2023/05/17 01:16:32;;;;;;;18.40;4.40;;;;;;;9.22;100.00;102030.53;5014643;28;20194;-76
2023/05/17 01:19:10;;;;;;;15.43;4.40;;;;;;;9.19;100.00;102025.28;5014121;28;20276;-76
2023/05/17 01:21:55;;;;;;;17.90;4.40;;;;;;;9.18;100.00;102022.66;5022042;28;20925;-75
2023/05/17 01:24:29;;;;;;;16.17;4.23;;;;;;;9.16;100.00;102027.72;5027715;28;20198;-75
2023/05/17 01:26:55;;;;;;;16.53;4.50;;;;;;;9.17;100.00;102026.03;5031844;28;20206;-76
2023/05/17 01:29:25;;;;;;;14.43;4.47;;;;;;;9.19;100.00;102032.97;5031714;28;20203;-75
2023/05/17 01:31:52;;;;;;;18.43;4.17;;;;;;;9.19;100.00;102027.84;5023861;28;20264;-75
2023/05/17 01:34:25;;;;;;;13.37;4.27;;;;;;;9.24;100.00;102034.03;5031646;28;20289;-75
2023/05/17 01:36:50;;;;;;;22.70;5.30;;;;;;;9.24;100.00;102041.69;5009245;28;20194;-74
2023/05/17 01:39:16;;;;;;;16.57;4.30;;;;;;;9.27;100.00;102046.91;5031107;28;20186;-76
2023/05/17 01:41:45;;;;;;;22.23;4.57;;;;;;;9.26;100.00;102042.63;5037296;28;20272;-75
2023/05/17 01:44:37;;;;;;;19.33;4.73;;;;;;;9.28;100.00;102051.25;5014535;28;20225;-75
2023/05/17 01:47:17;;;;;;;20.50;4.77;;;;;;;9.26;100.00;102050.28;5015728;28;20222;-76
2023/05/17 01:49:47;;;;;;;15.00;3.83;;;;;;;9.28;100.00;102052.91;5026008;28;20194;-75
2023/05/17 01:52:23;;;;;;;17.57;4.27;;;;;;;9.26;100.00;102050.28;5006053;28;20269;-76
2023/05/17 01:55:17;;;;;;;18.80;3.77;;;;;;;9.24;100.00;102057.03;5033122;28;20189;-76
2023/05/17 01:57:46;;;;;;;19.83;4.27;;;;;;;9.22;100.00;102061.19;4995450;28;20226;-76
2023/05/17 02:00:13;;;;;;;20.03;4.27;;;;;;;9.25;100.00;102065.56;5013723;28;20194;-76
2023/05/17 02:02:42;;;;;;;15.67;3.97;;;;;;;9.19;100.00;102063.63;5031446;28;20677;-75
2023/05/17 02:05:07;;;;;;;20.60;3.63;;;;;;;9.19;100.00;102067.84;5009882;28;20675;-75
2023/05/17 02:07:32;;;;;;;15.20;4.00;;;;;;;9.18;100.00;102071.22;5015483;28;20214;-77
2023/05/17 02:09:58;;;;;;;18.13;3.37;;;;;;;9.16;100.00;102066.03;5000672;28;20199;-76
2023/05/17 02:12:24;;;;;;;20.23;3.63;;;;;;;9.14;100.00;102071.88;5017076;28;20185;-75
2023/05/17 02:14:49;;;;;;;11.97;3.57;;;;;;;9.09;100.00;102069.13;5016512;28;20183;-75
2023/05/17 02:17:16;;;;;;;20.67;3.60;;;;;;;9.00;100.00;102072.94;5012285;28;20218;-75
2023/05/17 02:19:42;;;;;;;16.53;3.43;;;;;;;8.99;100.00;102076.31;5024894;28;20277;-75
2023/05/17 02:22:07;;;;;;;14.70;2.87;;;;;;;8.99;100.00;102076.31;5015605;28;20310;-75
2023/05/17 02:24:33;;;;;;;18.73;3.07;;;;;;;8.90;100.00;102079.31;5012519;28;20195;-75
2023/05/17 02:26:58;;;;;;;14.07;3.30;;;;;;;8.89;100.00;102084.38;5016361;28;20218;-75
2023/05/17 02:29:24;;;;;;;16.67;3.40;;;;;;;8.86;100.00;102082.56;5030468;28;20197;-76
2023/05/17 02:31:51;;;;;;;13.50;3.20;;;;;;;8.80;100.00;102089.06;5015127;28;20188;-75
2023/05/17 02:34:16;;;;;;;13.83;2.83;;;;;;;8.77;100.00;102089.78;5015096;28;20198;-75
2023/05/17 02:36:43;;;;;;;14.57;3.40;;;;;;;8.79;100.00;102098.38;5030637;28;20205;-75
2023/05/17 02:39:11;;;;;;;15.00;3.20;;;;;;;8.83;100.00;102091.72;5026203;28;20201;-75
2023/05/17 02:41:36;;;;;;;12.07;2.67;;;;;;;8.84;100.00;102098.59;5012592;28;20233;-75
2023/05/17 02:44:02;;;;;;;16.10;3.37;;;;;;;8.83;100.00;102105.38;5030220;28;20310;-76
2023/05/17 02:46:27;;;;;;;9.87;2.47;;;;;;;8.76;100.00;102098.22;5017141;28;20210;-75
2023/05/17 02:48:53;;;;;;;13.83;3.23;;;;;;;8.72;100.00;102105.69;5026423;28;20348;-75
2023/05/17 02:51:18;;;;;;;13.90;2.90;;;;;;;8.68;100.00;102111.44;5034801;28;20662;-76
2023/05/17 02:53:44;;;;;;;18.90;3.60;;;;;;;8.62;100.00;102116.28;5030137;28;20222;-76
2023/05/17 02:56:09;;;;;;;13.53;3.20;;;;;;;8.55;100.00;102115.09;5014882;28;20267;-75
2023/05/17 02:58:35;;;;;;;11.10;2.23;;;;;;;8.57;100.00;102121.16;4999319;28;20202;-76
2023/05/17 03:01:00;;;;;;;13.27;2.67;;;;;;;8.56;100.00;102123.63;5018721;28;20250;-75
2023/05/17 03:03:26;;;;;;;17.87;3.53;;;;;;;8.49;100.00;102109.72;5017010;28;20229;-76
2023/05/17 03:05:52;;;;;;;14.20;3.33;;;;;;;8.41;100.00;102128.88;5012050;28;20363;-75
2023/05/17 03:08:18;;;;;;;13.27;2.60;;;;;;;8.33;100.00;102127.63;5019393;28;20214;-75
2023/05/17 03:10:44;;;;;;;12.00;2.20;;;;;;;8.28;100.00;102126.53;5013397;28;20655;-75
2023/05/17 03:13:10;;;;;;;16.57;3.40;;;;;;;8.31;100.00;102120.69;5011057;28;20344;-75
2023/05/17 03:15:38;;;;;;;14.00;3.13;;;;;;;8.25;100.00;102130.63;5015871;28;20281;-75
2023/05/17 03:18:03;;;;;;;12.10;2.40;;;;;;;8.24;100.00;102136.53;5011652;28;20265;-74
2023/05/17 03:20:29;;;;;;;13.43;2.27;;;;;;;8.17;100.00;102142.06;5012030;28;20736;-75
2023/05/17 03:22:55;;;;;;;11.67;2.67;;;;;;;8.13;100.00;102143.59;4996055;28;20198;-76
2023/05/17 03:25:20;;;;;;;14.37;2.90;;;;;;;8.10;100.00;102143.44;5019990;28;20193;-75
2023/05/17 03:27:46;;;;;;;11.13;2.43;;;;;;;8.06;100.00;102146.63;5015239;28;20606;-75
2023/05/17 03:30:12;;;;;;;11.53;2.80;;;;;;;8.04;100.00;102147.34;5040827;28;20218;-75
2023/05/17 03:32:39;;;;;;;15.07;2.50;;;;;;;7.98;100.00;102150.50;5015781;28;20737;-75
2023/05/17 03:35:05;;;;;;;13.17;2.40;;;;;;;7.99;100.00;102152.25;5010906;28;20198;-74
2023/05/17 03:37:32;;;;;;;12.70;2.57;;;;;;;7.99;100.00;102153.91;5018908;28;20218;-75
2023/05/17 03:39:57;;;;;;;9.03;2.13;;;;;;;7.97;100.00;102156.38;5022126;28;20198;-75
2023/05/17 03:42:23;;;;;;;14.43;2.30;;;;;;;7.93;100.00;102164.66;5019382;28;20210;-75
2023/05/17 03:44:49;;;;;;;10.00;2.13;;;;;;;7.91;100.00;102163.72;5019217;28;20190;-76
2023/05/17 03:47:15;;;;;;;15.20;2.70;;;;;;;7.90;100.00;102169.63;5008163;28;20686;-75
2023/05/17 03:49:42;;;;;;;9.03;2.33;;;;;;;7.91;100.00;102173.91;5011846;28;20616;-74
2023/05/17 03:52:07;;;;;;;9.93;2.57;;;;;;;7.91;100.00;102175.59;4998247;28;20269;-75
2023/05/17 03:54:33;;;;;;;9.60;2.00;;;;;;;7.90;100.00;102179.81;5006954;28;20284;-74
2023/05/17 03:56:59;;;;;;;10.43;1.90;;;;;;;7.90;100.00;102187.47;5015383;28;20256;-75
2023/05/17 03:59:24;;;;;;;13.40;2.00;;;;;;;7.91;100.00;102186.66;5043981;28;20253;-75
2023/05/17 04:01:50;;;;;;;11.90;2.60;;;;;;;7.91;100.00;102180.69;5014646;28;20283;-75
2023/05/17 04:04:16;;;;;;;13.20;2.60;;;;;;;7.92;100.00;102182.47;5033206;28;20605;-75
2023/05/17 04:06:41;;;;;;;14.73;2.23;;;;;;;7.91;100.00;102194.31;5019320;28;20194;-75
2023/05/17 04:09:09;;;;;;;10.50;2.53;;;;;;;7.95;100.00;102192.78;4994726;28;20209;-75
2023/05/17 04:11:35;;;;;;;12.83;2.50;;;;;;;7.95;100.00;102192.78;5019131;28;20604;-75
2023/05/17 04:14:00;;;;;;;12.73;2.17;;;;;;;7.97;100.00;102201.41;5017217;28;20203;-75
2023/05/17 04:16:26;;;;;;;12.77;2.40;;;;;;;8.05;100.00;102180.59;5028893;28;20412;-74
2023/05/17 04:18:53;;;;;;;11.60;2.27;;;;;;;8.10;100.00;102189.34;5015327;28;20241;-75
2023/05/17 04:21:18;;;;;;;10.73;2.53;;;;;;;8.13;100.00;102191.19;5011041;28;20245;-76
2023/05/17 04:23:44;;;;;;;12.77;2.20;;;;;;;8.10;100.00;102203.78;5014653;28;20659;-74
2023/05/17 04:26:10;;;;;;;10.27;2.67;;;;;;;8.15;100.00;102199.81;5006686;28;20189;-75
2023/05/17 04:28:38;;;;;;;11.00;2.80;;;;;;;8.14;100.00;102204.03;5010622;28;20222;-75
2023/05/17 04:31:07;;;;;;;12.27;2.53;;;;;;;8.19;100.00;102191.47;5010717;28;20205;-75
2023/05/17 04:33:33;;;;;;;14.57;2.20;;;;;;;8.22;100.00;102207.00;5015359;28;20198;-74
2023/05/17 04:35:58;;;;;;;17.90;3.63;;;;;;;8.25;100.00;102210.56;5011533;28;22220;-75
2023/05/17 04:38:25;;;;;;;14.07;2.63;;;;;;;8.25;100.00;102233.53;5003601;28;20244;-75
2023/05/17 04:40:51;;;;;;;14.40;2.83;;;;;;;8.22;100.00;102224.84;5019434;28;20205;-75
2023/05/17 04:43:16;;;;;;;18.57;3.10;;;;;;;8.25;100.00;102200.34;5003769;28;20569;-75
2023/05/17 04:45:42;;;;;;;15.57;3.23;;;;;;;8.34;100.00;102223.78;4994310;28;20222;-75
2023/05/17 04:48:08;;;;;;;10.97;2.63;;;;;;;8.31;100.00;102227.88;5011417;28;20220;-74
2023/05/17 04:50:33;;;;;;;10.60;2.53;;;;;;;8.37;100.00;102205.19;5015476;28;20248;-75
2023/05/17 04:52:59;;;;;;;14.90;2.60;;;;;;;8.39;100.00;102218.94;5025505;28;20187;-75
2023/05/17 04:55:25;;;;;;;15.23;3.20;;;;;;;8.42;100.00;102201.19;5016204;28;20187;-76
2023/05/17 04:57:51;;;;;;;12.00;3.03;;;;;;;8.45;100.00;102166.50;5028288;28;20208;-75
2023/05/17 05:00:17;;;;;;;11.53;2.90;;;;;;;8.52;100.00;102160.03;5028289;28;20198;-75
2023/05/17 05:02:48;;;;;;;13.83;2.40;;;;;;;8.59;100.00;102151.84;5016559;28;20190;-75
2023/05/17 05:05:14;;;;;;;12.90;2.63;;;;;;;8.61;100.00;102054.13;4994325;28;20268;-74
2023/05/17 05:07:41;;;;;;;13.20;3.00;;;;;;;8.69;100.00;101999.19;5013894;28;20676;-74
2023/05/17 05:10:08;;;;;;;11.43;2.20;;;;;;;8.74;100.00;101964.50;5002772;28;20183;-76
2023/05/17 05:12:34;;;;;;;10.40;2.43;;;;;;;8.83;100.00;101931.72;5010569;28;20228;-74
2023/05/17 05:14:59;;;;;;;12.90;2.23;;;;;;;8.81;100.00;101986.94;5031789;28;20834;-75
2023/05/17 05:17:25;;;;;;;15.97;2.97;;;;;;;8.96;100.00;101991.88;5010264;28;20703;-74
2023/05/17 05:19:50;;;;;;;11.67;2.37;;;;;;;9.05;100.00;101995.72;5016295;28;20692;-76
2023/05/17 05:22:16;;;;;;;17.20;2.73;;;;;;;9.09;100.00;101987.38;5048070;28;20396;-75
2023/05/17 05:24:42;;;;;;;10.93;2.57;;;;;;;9.07;100.00;101986.41;5004078;28;20198;-75
2023/05/17 05:27:08;;;;;;;12.00;2.37;;;;;;;9.08;100.00;102021.38;5011472;28;20284;-76
2023/05/17 05:29:34;;;;;;;12.17;2.47;;;;;;;9.12;100.00;102007.09;5018394;28;20225;-75
2023/05/17 05:32:01;;;;;;;13.37;2.50;;;;;;;9.13;100.00;102057.38;5018820;28;20615;-75
2023/05/17 05:34:28;;;;;;;17.37;3.57;;;;;;;9.14;100.00;102057.44;5017637;28;20214;-75
2023/05/17 05:36:53;;;;;;;13.70;2.77;;;;;;;9.18;100.00;102077.22;5002764;28;20198;-76
2023/05/17 05:39:19;;;;;;;13.90;2.97;;;;;;;9.18;100.00;102067.00;5021649;28;20695;-75
2023/05/17 05:41:45;;;;;;;16.87;3.50;;;;;;;9.23;100.00;102110.63;5022372;28;20256;-75
2023/05/17 05:44:10;;;;;;;12.10;2.87;;;;;;;9.22;100.00;102093.56;5029212;28;20258;-74
2023/05/17 05:46:36;;;;;;;15.90;3.43;;;;;;;9.31;100.00;102106.75;5031623;28;20190;-75
2023/05/17 05:49:02;;;;;;;10.93;2.50;;;;;;;9.37;100.00;102114.66;5018494;28;20222;-76
2023/05/17 05:51:30;;;;;;;12.30;3.03;;;;;;;9.45;100.00;102118.44;5021967;28;20210;-75
2023/05/17 05:53:57;;;;;;;13.47;2.73;;;;;;;9.60;100.00;102139.56;5013616;28;20540;-75
2023/05/17 05:56:24;;;;;;;15.20;2.70;;;;;;;9.65;100.00;102133.84;5018889;28;20199;-75
2023/05/17 05:58:50;;;;;;;15.30;3.13;;;;;;;9.67;100.00;102150.13;5003243;28;20221;-75
2023/05/17 06:01:17;;;;;;;12.77;2.70;;;;;;;9.86;100.00;102156.94;5051205;28;20225;-75
2023/05/17 06:03:42;;;;;;;14.17;2.63;;;;;;;10.08;100.00;102178.41;5029206;28;20186;-75
2023/05/17 06:06:08;;;;;;;15.23;2.80;;;;;;;10.18;100.00;102137.03;5020739;28;20194;-75
2023/05/17 06:08:34;;;;;;;14.77;3.47;;;;;;;10.27;100.00;102116.06;5031045;28;20218;-75
2023/05/17 06:11:00;;;;;;;9.97;2.63;;;;;;;10.30;100.00;102081.22;5033835;28;20244;-75
2023/05/17 06:13:25;;;;;;;13.63;2.90;;;;;;;10.57;100.00;102081.44;5033038;28;20194;-75
2023/05/17 06:15:50;;;;;;;12.73;3.10;;;;;;;10.43;100.00;102093.72;5031208;28;20244;-75
2023/05/17 06:18:16;;;;;;;15.47;2.93;;;;;;;10.85;100.00;102059.50;5019557;28;20307;-74
2023/05/17 06:20:42;;;;;;;12.87;2.40;;;;;;;11.12;100.00;102001.59;5028968;28;20670;-75
2023/05/17 06:23:07;;;;;;;12.83;2.90;;;;;;;11.44;100.00;101954.84;5013086;28;20222;-75
2023/05/17 06:25:32;;;;;;;13.53;2.83;;;;;;;11.58;100.00;101932.22;5030440;28;20194;-74
2023/05/17 06:28:01;;;;;;;13.43;2.60;;;;;;;11.59;99.80;101859.53;5030151;28;20240;-74
2023/05/17 06:30:26;;;;;;;10.20;2.60;;;;;;;11.90;100.00;101887.94;5030658;28;20202;-74
2023/05/17 06:32:52;;;;;;;12.17;2.30;;;;;;;11.98;100.00;101912.16;5019994;28;20252;-75
2023/05/17 06:35:17;;;;;;;13.13;2.80;;;;;;;11.97;97.09;101857.38;5021338;28;20186;-75
2023/05/17 06:37:43;;;;;;;12.07;2.47;;;;;;;12.05;93.74;101819.09;5027833;28;20210;-75
2023/05/17 06:40:09;;;;;;;8.87;2.40;;;;;;;11.83;90.07;101804.75;5032983;28;20195;-74
2023/05/17 06:42:35;;;;;;;10.40;2.57;;;;;;;11.66;93.99;101835.88;5029759;28;20721;-75
2023/05/17 06:45:01;;;;;;;12.57;2.43;;;;;;;11.44;92.12;101838.56;4996288;28;20284;-75
2023/05/17 06:47:26;;;;;;;8.43;2.50;;;;;;;11.33;92.32;101858.72;5031340;28;20217;-76
2023/05/17 06:49:52;;;;;;;12.00;2.23;;;;;;;11.26;97.74;101900.38;5030660;28;20198;-75
2023/05/17 06:52:17;;;;;;;10.43;2.20;;;;;;;11.08;97.59;101914.25;5027793;28;20194;-75
2023/05/17 06:54:42;;;;;;;12.70;2.40;;;;;;;11.18;99.99;101924.88;5024160;28;20190;-76
2023/05/17 06:57:08;;;;;;;8.80;1.93;;;;;;;11.30;100.00;101966.28;5037101;28;20210;-74
2023/05/17 06:59:35;;;;;;;14.37;2.47;;;;;;;11.13;100.00;101959.75;5031843;28;20198;-74
2023/05/17 07:02:00;;;;;;;11.83;2.00;;;;;;;11.26;100.00;101971.28;5031399;28;20951;-75
2023/05/17 07:04:26;;;;;;;8.73;1.93;;;;;;;11.18;99.76;101975.25;5035320;28;20229;-74
2023/05/17 07:06:51;;;;;;;11.10;2.30;;;;;;;11.16;100.00;101982.03;5014086;28;20282;-73
2023/05/17 07:09:17;;;;;;;11.73;2.80;;;;;;;11.36;100.00;101998.97;5028802;28;20648;-74
2023/05/17 07:11:43;;;;;;;11.97;2.37;;;;;;;11.43;100.00;102022.31;5010851;28;20198;-74
2023/05/17 07:14:08;;;;;;;12.87;2.67;;;;;;;11.31;99.43;101980.00;5026253;28;20198;-74
2023/05/17 07:16:34;;;;;;;12.00;2.37;;;;;;;11.37;99.89;101987.91;5017400;28;20194;-74
2023/05/17 07:18:59;;;;;;;9.33;3.30;;;;;;;11.46;93.36;101939.47;5027489;28;20249;-75
2023/05/17 07:21:25;;;;;;;13.80;2.47;;;;;;;11.36;89.48;101904.09;5028728;28;20211;-74
2023/05/17 07:23:50;;;;;;;8.50;2.40;;;;;;;11.43;89.26;101918.88;5029582;28;20198;-73
2023/05/17 07:26:19;;;;;;;11.20;2.50;;;;;;;11.59;86.55;101887.78;5012814;28;20198;-74
2023/05/17 07:28:45;;;;;;;11.00;2.57;;;;;;;11.75;86.94;101905.44;5022025;28;20264;-74
2023/05/17 07:31:11;;;;;;;9.87;2.47;;;;;;;11.88;75.65;101834.00;5027474;28;20194;-74
2023/05/17 07:33:37;;;;;;;7.70;2.03;;;;;;;12.28;73.24;101825.75;5029146;28;20294;-74
2023/05/17 07:36:03;;;;;;;10.37;2.20;;;;;;;12.62;70.55;101838.69;5028214;28;20229;-75
2023/05/17 07:38:28;;;;;;;9.03;1.90;;;;;;;12.37;72.98;101933.88;5028788;28;20305;-73
2023/05/17 07:40:54;;;;;;;8.17;2.27;;;;;;;12.72;67.32;101913.50;5012598;28;20305;-74
2023/05/17 07:43:19;;;;;;;8.27;2.17;;;;;;;12.72;64.82;101921.22;5028753;28;20233;-74
2023/05/17 07:45:44;;;;;;;9.20;2.20;;;;;;;12.69;67.03;101946.84;5005681;28;20194;-75
2023/05/17 07:48:10;;;;;;;5.67;1.60;;;;;;;12.91;61.73;101935.47;5026350;28;20210;-74
2023/05/17 07:50:35;;;;;;;7.53;2.47;;;;;;;12.74;62.21;101964.97;5017658;28;20847;-74
2023/05/17 07:53:01;;;;;;;7.17;1.87;;;;;;;12.47;65.98;102013.84;5024991;28;20324;-74
2023/05/17 07:55:26;;;;;;;8.93;2.23;;;;;;;12.64;60.63;101974.13;5028639;28;20198;-74
2023/05/17 07:57:52;;;;;;;5.80;1.63;;;;;;;12.39;61.06;101997.31;5028935;28;20214;-74
2023/05/17 08:00:18;;;;;;;9.63;2.00;;;;;;;12.93;62.73;102010.06;5026243;28;20202;-74
2023/05/17 08:02:44;;;;;;;8.77;2.30;;;;;;;13.59;61.43;102007.66;5034535;28;20201;-74
2023/05/17 08:05:09;;;;;;;10.73;2.27;;;;;;;13.31;61.62;102038.59;5028696;28;20194;-74
2023/05/17 08:07:35;;;;;;;8.67;2.07;;;;;;;13.25;64.45;102077.03;5019223;28;20805;-74
2023/05/17 08:10:00;;;;;;;7.77;2.63;;;;;;;12.93;64.16;102082.91;5027382;28;20205;-74
2023/05/17 08:12:26;;;;;;;9.17;2.40;;;;;;;13.10;65.10;102086.00;5022897;28;20218;-74
2023/05/17 08:14:52;;;;;;;9.27;2.50;;;;;;;13.26;63.34;102065.06;5043530;28;20201;-74
2023/05/17 08:17:17;;;;;;;14.13;2.90;;;;;;;13.45;62.95;102064.72;5023489;28;20279;-75
2023/05/17 08:19:42;;;;;;;8.40;2.20;;;;;;;13.74;65.18;102080.13;5029056;28;20667;-74
2023/05/17 08:22:09;;;;;;;10.17;2.20;;;;;;;14.11;63.75;102080.22;5028733;28;20218;-74
2023/05/17 08:24:35;;;;;;;9.10;2.47;;;;;;;13.81;61.21;102055.41;5028424;28;20191;-74
2023/05/17 08:27:01;;;;;;;9.40;2.10;;;;;;;13.73;61.46;102067.22;5028088;28;20593;-74
2023/05/17 08:29:26;;;;;;;8.83;2.23;;;;;;;13.56;63.63;102099.34;5017267;28;20194;-74
2023/05/17 08:31:53;;;;;;;8.57;2.10;;;;;;;13.78;65.01;102118.00;5015737;28;20702;-74
2023/05/17 08:34:18;;;;;;;7.53;2.30;;;;;;;13.37;65.39;102122.81;5028314;28;20274;-75
2023/05/17 08:36:44;;;;;;;8.67;2.20;;;;;;;13.82;65.20;102124.97;5028734;28;20194;-74
2023/05/17 08:39:11;;;;;;;6.73;2.00;;;;;;;14.00;62.30;102093.69;5015699;28;20197;-74
2023/05/17 08:41:37;;;;;;;6.77;2.27;;;;;;;14.20;62.61;102097.59;5029005;28;20938;-75
2023/05/17 08:44:04;;;;;;;7.40;1.97;;;;;;;13.92;59.31;102078.03;5024528;28;20652;-75
2023/05/17 08:46:31;;;;;;;9.77;2.23;;;;;;;13.95;62.96;102134.75;5025857;28;20194;-74
2023/05/17 08:48:58;;;;;;;6.00;1.80;;;;;;;13.54;62.54;102135.31;5012087;28;20650;-73
2023/05/17 08:51:25;;;;;;;7.03;1.80;;;;;;;13.72;61.64;102140.97;5010085;28;20183;-74
2023/05/17 08:53:50;;;;;;;7.87;2.07;;;;;;;13.78;61.72;102141.16;5028594;28;20187;-74
2023/05/17 08:56:20;;;;;;;5.87;2.03;;;;;;;14.32;59.27;102118.56;5028158;28;20202;-74
2023/05/17 08:58:55;;;;;;;7.10;2.10;;;;;;;14.93;59.15;102114.88;4999309;28;20277;-75
2023/05/17 09:01:20;;;;;;;9.97;2.20;;;;;;;15.17;56.01;102102.50;5028170;28;20279;-74
2023/05/17 09:03:48;;;;;;;10.87;2.33;;;;;;;14.41;56.35;102135.13;5030214;28;20731;-74
2023/05/17 09:06:17;;;;;;;6.67;2.07;;;;;;;14.30;58.18;102143.41;5030602;28;20194;-75
2023/05/17 09:08:43;;;;;;;7.03;2.00;;;;;;;13.94;59.45;102187.09;5024982;28;20592;-74
2023/05/17 09:11:09;;;;;;;7.90;2.30;;;;;;;14.03;63.30;102213.09;5031626;28;20194;-74
2023/05/17 09:13:36;;;;;;;8.33;2.43;;;;;;;13.70;61.67;102204.44;5031912;28;20610;-74
2023/05/17 09:16:01;;;;;;;10.13;2.40;;;;;;;13.67;68.25;102248.09;5026568;28;20229;-75
2023/05/17 09:18:31;;;;;;;7.97;2.53;;;;;;;14.01;61.19;102208.75;5030637;28;20261;-74
2023/05/17 09:21:03;;;;;;;6.00;2.00;;;;;;;14.42;58.81;102166.94;5020892;28;20222;-75
2023/05/17 09:23:32;;;;;;;8.80;2.10;;;;;;;14.47;59.07;102168.78;5028622;28;20205;-75
2023/05/17 09:26:08;;;;;;;7.20;2.13;;;;;;;14.47;55.93;102149.88;5032008;28;20271;-74
2023/05/17 09:28:39;;;;;;;8.63;2.40;;;;;;;14.38;58.51;102173.72;5019372;28;20213;-74
2023/05/17 09:31:09;;;;;;;10.03;2.57;;;;;;;14.64;59.20;102182.09;5028476;28;20239;-74
2023/05/17 09:33:45;;;;;;;7.93;2.50;;;;;;;15.23;57.95;102169.72;5030629;28;20190;-74
2023/05/17 09:36:22;;;;;;;7.47;2.70;;;;;;;15.20;55.74;102138.69;5028475;28;20190;-75
2023/05/17 09:38:55;;;;;;;7.20;2.10;;;;;;;14.85;55.92;102165.41;5029460;28;20218;-74
2023/05/17 09:41:21;;;;;;;7.30;1.90;;;;;;;14.69;56.68;102190.81;5028373;28;20214;-74
2023/05/17 09:43:47;;;;;;;10.20;2.47;;;;;;;14.54;54.88;102159.50;5029219;28;20566;-74
2023/05/17 09:46:14;;;;;;;8.60;2.30;;;;;;;15.12;58.95;102220.25;5028824;28;20203;-75
2023/05/17 09:48:42;;;;;;;9.53;2.50;;;;;;;15.62;58.00;102196.44;5030937;28;20245;-75
2023/05/17 09:51:08;;;;;;;7.47;2.67;;;;;;;16.06;55.09;102161.09;5021344;28;20198;-75
2023/05/17 09:53:41;;;;;;;9.03;2.73;;;;;;;15.71;55.47;102163.00;5030901;28;20550;-74
2023/05/17 09:56:06;;;;;;;10.37;2.10;;;;;;;15.00;53.02;102160.59;5031396;28;20561;-74
2023/05/17 09:58:35;;;;;;;11.37;2.40;;;;;;;15.26;55.26;102212.78;5026447;28;20218;-74
2023/05/17 10:01:02;;;;;;;9.30;2.33;;;;;;;15.22;53.14;102175.72;5028726;28;20202;-74
2023/05/17 10:03:33;;;;;;;9.07;2.50;;;;;;;15.96;55.84;102210.88;5038227;28;20773;-74
2023/05/17 10:06:01;;;;;;;7.17;2.30;;;;;;;16.60;52.93;102170.72;5030854;28;20202;-75
2023/05/17 10:08:28;;;;;;;10.33;2.47;;;;;;;16.43;51.68;102184.19;5030176;28;20748;-75
2023/05/17 10:10:57;;;;;;;11.20;2.90;;;;;;;16.17;52.49;102219.03;5030620;28;20202;-74
2023/05/17 10:13:29;;;;;;;6.27;1.90;;;;;;;15.83;53.30;102238.19;5028765;28;20280;-74
2023/05/17 10:15:54;;;;;;;6.60;2.20;;;;;;;15.83;53.50;102238.19;5026243;28;20193;-74
2023/05/17 10:18:21;;;;;;;9.53;2.67;;;;;;;15.55;54.57;102258.22;5029499;28;20617;-75
2023/05/17 10:20:47;;;;;;;8.57;2.37;;;;;;;15.32;55.06;102269.72;5030792;28;20218;-74
2023/05/17 10:23:14;;;;;;;11.03;2.90;;;;;;;14.70;58.33;102322.38;5023088;28;20208;-74
2023/05/17 10:25:40;;;;;;;7.37;2.80;;;;;;;14.50;58.42;102332.97;5030531;28;20205;-74
2023/05/17 10:28:06;;;;;;;10.17;2.97;;;;;;;14.73;63.84;102373.16;5024017;28;20591;-75
2023/05/17 10:30:33;;;;;;;9.90;3.20;;;;;;;14.87;59.95;102338.28;5030104;28;20671;-74
2023/05/17 10:32:59;;;;;;;6.10;2.43;;;;;;;15.52;56.98;102294.31;5030290;28;20688;-75
2023/05/17 10:35:26;;;;;;;8.70;2.70;;;;;;;16.21;56.29;102281.16;5030142;28;20671;-74
2023/05/17 10:37:52;;;;;;;8.53;2.67;;;;;;;16.73;53.54;102226.13;5024461;28;20245;-74
2023/05/17 10:40:18;;;;;;;8.20;2.57;;;;;;;16.86;50.47;102230.66;5018936;28;20226;-75
2023/05/17 10:42:52;;;;;;;9.93;2.53;;;;;;;16.45;51.11;102319.59;5011266;28;20774;-75
2023/05/17 10:45:23;;;;;;;7.43;2.40;;;;;;;15.89;51.39;102325.28;5029911;28;20198;-74
2023/05/17 10:47:52;;;;;;;8.50;2.67;;;;;;;16.03;52.33;102345.41;5023149;28;20238;-75
2023/05/17 10:50:22;;;;;;;9.33;2.47;;;;;;;16.27;52.05;102334.72;5029952;28;20323;-74
2023/05/17 10:52:49;;;;;;;7.47;2.27;;;;;;;16.31;50.18;102308.94;5026839;28;20200;-74
2023/05/17 10:55:23;;;;;;;6.40;2.00;;;;;;;16.28;48.35;102283.03;5023829;28;20229;-74
2023/05/17 10:58:15;;;;;;;8.73;2.47;;;;;;;16.33;50.05;102329.66;5010706;28;20233;-75
2023/05/17 11:00:43;;;;;;;10.17;2.97;;;;;;;16.41;50.23;102334.19;5030019;28;20218;-75
2023/05/17 11:03:16;;;;;;;8.80;2.73;;;;;;;16.10;50.12;102329.19;5030344;28;20198;-75
2023/05/17 11:06:04;;;;;;;7.77;2.23;;;;;;;16.78;49.25;102304.69;5007749;28;20281;-74
2023/05/17 11:08:29;;;;;;;7.43;1.93;;;;;;;17.00;49.32;102333.53;5018657;28;20236;-76
2023/05/17 11:11:12;;;;;;;5.70;1.70;;;;;;;17.57;47.67;102331.03;5012540;28;20194;-75
2023/05/17 11:13:51;;;;;;;6.87;2.13;;;;;;;16.64;48.42;102353.59;5011920;28;20198;-75
2023/05/17 11:16:20;;;;;;;6.60;1.40;;;;;;;17.38;47.79;102334.19;5008850;28;20236;-74
2023/05/17 11:18:46;;;;;;;5.83;2.00;;;;;;;17.53;46.98;102326.66;5022782;28;20265;-76